sensor_id;sensor_type;location;lat;lon;timestamp;P1;durP1;ratioP1;P2;durP2;ratioP2
14096;SDS011;7125;48.106;11.544;2022-08-24T00:01:29;5.13;;;4.70;;
14096;SDS011;7125;48.106;11.544;2022-08-24T00:03:56;4.37;;;4.07;;
14096;SDS011;7125;48.106;11.544;2022-08-24T00:06:23;4.00;;;3.70;;
14096;SDS011;7125;48.106;11.544;2022-08-24T00:08:52;4.63;;;4.23;;
14096;SDS011;7125;48.106;11.544;2022-08-24T00:11:20;3.57;;;3.37;;
14096;SDS011;7125;48.106;11.544;2022-08-24T00:13:47;3.67;;;3.37;;
14096;SDS011;7125;48.106;11.544;2022-08-24T00:16:14;4.77;;;3.13;;
14096;SDS011;7125;48.106;11.544;2022-08-24T00:18:43;3.63;;;3.33;;
14096;SDS011;7125;48.106;11.544;2022-08-24T00:21:11;3.50;;;3.20;;
14096;SDS011;7125;48.106;11.544;2022-08-24T00:23:38;3.83;;;3.53;;
14096;SDS011;7125;48.106;11.544;2022-08-24T00:26:05;4.13;;;3.67;;
14096;SDS011;7125;48.106;11.544;2022-08-24T00:28:32;3.20;;;3.00;;
14096;SDS011;7125;48.106;11.544;2022-08-24T00:31:00;4.03;;;3.40;;
14096;SDS011;7125;48.106;11.544;2022-08-24T00:33:27;4.03;;;3.67;;
14096;SDS011;7125;48.106;11.544;2022-08-24T00:35:56;4.03;;;3.57;;
14096;SDS011;7125;48.106;11.544;2022-08-24T00:38:23;4.43;;;3.70;;
14096;SDS011;7125;48.106;11.544;2022-08-24T00:40:50;3.90;;;3.60;;
14096;SDS011;7125;48.106;11.544;2022-08-24T00:43:18;3.30;;;3.03;;
14096;SDS011;7125;48.106;11.544;2022-08-24T00:45:50;4.33;;;3.93;;
14096;SDS011;7125;48.106;11.544;2022-08-24T00:48:29;5.40;;;3.40;;
14096;SDS011;7125;48.106;11.544;2022-08-24T00:51:02;3.27;;;3.03;;
14096;SDS011;7125;48.106;11.544;2022-08-24T00:53:34;4.13;;;3.53;;
14096;SDS011;7125;48.106;11.544;2022-08-24T00:56:06;4.63;;;3.80;;
14096;SDS011;7125;48.106;11.544;2022-08-24T00:58:38;4.77;;;3.77;;
14096;SDS011;7125;48.106;11.544;2022-08-24T01:01:09;4.23;;;3.93;;
14096;SDS011;7125;48.106;11.544;2022-08-24T01:03:39;4.43;;;3.60;;
14096;SDS011;7125;48.106;11.544;2022-08-24T01:06:09;3.80;;;3.50;;
14096;SDS011;7125;48.106;11.544;2022-08-24T01:08:36;4.10;;;3.43;;
14096;SDS011;7125;48.106;11.544;2022-08-24T01:11:05;4.23;;;3.87;;
14096;SDS011;7125;48.106;11.544;2022-08-24T01:13:39;3.93;;;3.70;;
14096;SDS011;7125;48.106;11.544;2022-08-24T01:16:09;4.60;;;4.20;;
14096;SDS011;7125;48.106;11.544;2022-08-24T01:18:39;3.87;;;3.57;;
14096;SDS011;7125;48.106;11.544;2022-08-24T01:21:16;5.20;;;3.60;;
14096;SDS011;7125;48.106;11.544;2022-08-24T01:23:47;3.83;;;3.57;;
14096;SDS011;7125;48.106;11.544;2022-08-24T01:26:18;4.10;;;3.80;;
14096;SDS011;7125;48.106;11.544;2022-08-24T01:28:48;4.50;;;4.10;;
14096;SDS011;7125;48.106;11.544;2022-08-24T01:31:20;4.50;;;3.87;;
14096;SDS011;7125;48.106;11.544;2022-08-24T01:33:48;3.90;;;3.60;;
14096;SDS011;7125;48.106;11.544;2022-08-24T01:36:18;4.37;;;3.97;;
14096;SDS011;7125;48.106;11.544;2022-08-24T01:38:53;4.43;;;4.07;;
14096;SDS011;7125;48.106;11.544;2022-08-24T01:41:22;4.43;;;4.03;;
14096;SDS011;7125;48.106;11.544;2022-08-24T01:43:50;3.97;;;3.67;;
14096;SDS011;7125;48.106;11.544;2022-08-24T01:46:17;4.30;;;3.83;;
14096;SDS011;7125;48.106;11.544;2022-08-24T01:48:45;3.77;;;3.47;;
14096;SDS011;7125;48.106;11.544;2022-08-24T01:51:11;3.93;;;3.63;;
14096;SDS011;7125;48.106;11.544;2022-08-24T01:53:39;5.37;;;3.70;;
14096;SDS011;7125;48.106;11.544;2022-08-24T01:56:07;4.30;;;3.90;;
14096;SDS011;7125;48.106;11.544;2022-08-24T01:58:34;4.57;;;4.20;;
14096;SDS011;7125;48.106;11.544;2022-08-24T02:01:00;4.10;;;3.80;;
14096;SDS011;7125;48.106;11.544;2022-08-24T02:03:27;5.07;;;4.67;;
14096;SDS011;7125;48.106;11.544;2022-08-24T02:05:55;4.93;;;4.53;;
14096;SDS011;7125;48.106;11.544;2022-08-24T02:08:23;7.80;;;4.37;;
14096;SDS011;7125;48.106;11.544;2022-08-24T02:10:51;4.73;;;4.33;;
14096;SDS011;7125;48.106;11.544;2022-08-24T02:13:19;5.93;;;4.77;;
14096;SDS011;7125;48.106;11.544;2022-08-24T02:15:46;4.13;;;3.83;;
14096;SDS011;7125;48.106;11.544;2022-08-24T02:18:13;4.20;;;3.90;;
14096;SDS011;7125;48.106;11.544;2022-08-24T02:20:40;4.53;;;4.20;;
14096;SDS011;7125;48.106;11.544;2022-08-24T02:23:07;4.13;;;3.83;;
14096;SDS011;7125;48.106;11.544;2022-08-24T02:25:34;5.97;;;3.80;;
14096;SDS011;7125;48.106;11.544;2022-08-24T02:28:01;4.47;;;3.83;;
14096;SDS011;7125;48.106;11.544;2022-08-24T02:30:30;3.67;;;3.37;;
14096;SDS011;7125;48.106;11.544;2022-08-24T02:32:58;3.50;;;3.30;;
14096;SDS011;7125;48.106;11.544;2022-08-24T02:35:25;4.23;;;3.93;;
14096;SDS011;7125;48.106;11.544;2022-08-24T02:37:53;4.47;;;4.17;;
14096;SDS011;7125;48.106;11.544;2022-08-24T02:40:20;4.40;;;4.10;;
14096;SDS011;7125;48.106;11.544;2022-08-24T02:42:48;5.17;;;3.50;;
14096;SDS011;7125;48.106;11.544;2022-08-24T02:45:15;4.43;;;4.10;;
14096;SDS011;7125;48.106;11.544;2022-08-24T02:47:45;4.33;;;3.97;;
14096;SDS011;7125;48.106;11.544;2022-08-24T02:50:13;3.90;;;3.60;;
14096;SDS011;7125;48.106;11.544;2022-08-24T02:52:42;4.27;;;3.97;;
14096;SDS011;7125;48.106;11.544;2022-08-24T02:55:11;4.20;;;3.80;;
14096;SDS011;7125;48.106;11.544;2022-08-24T02:57:40;4.03;;;3.73;;
14096;SDS011;7125;48.106;11.544;2022-08-24T03:00:11;3.67;;;3.37;;
14096;SDS011;7125;48.106;11.544;2022-08-24T03:02:50;5.07;;;4.40;;
14096;SDS011;7125;48.106;11.544;2022-08-24T03:05:17;3.77;;;3.47;;
14096;SDS011;7125;48.106;11.544;2022-08-24T03:07:44;4.20;;;3.90;;
14096;SDS011;7125;48.106;11.544;2022-08-24T03:10:11;4.37;;;4.07;;
14096;SDS011;7125;48.106;11.544;2022-08-24T03:12:39;4.30;;;4.00;;
14096;SDS011;7125;48.106;11.544;2022-08-24T03:15:07;3.60;;;3.30;;
14096;SDS011;7125;48.106;11.544;2022-08-24T03:17:36;3.73;;;3.43;;
14096;SDS011;7125;48.106;11.544;2022-08-24T03:20:07;4.23;;;3.93;;
14096;SDS011;7125;48.106;11.544;2022-08-24T03:22:37;5.40;;;3.97;;
14096;SDS011;7125;48.106;11.544;2022-08-24T03:25:04;4.90;;;4.50;;
14096;SDS011;7125;48.106;11.544;2022-08-24T03:27:32;4.97;;;4.23;;
14096;SDS011;7125;48.106;11.544;2022-08-24T03:29:59;6.27;;;4.37;;
14096;SDS011;7125;48.106;11.544;2022-08-24T03:32:27;4.13;;;3.83;;
14096;SDS011;7125;48.106;11.544;2022-08-24T03:34:54;4.17;;;3.87;;
14096;SDS011;7125;48.106;11.544;2022-08-24T03:37:22;4.70;;;4.20;;
14096;SDS011;7125;48.106;11.544;2022-08-24T03:39:50;6.80;;;3.97;;
14096;SDS011;7125;48.106;11.544;2022-08-24T03:42:18;4.57;;;4.13;;
14096;SDS011;7125;48.106;11.544;2022-08-24T03:44:45;6.70;;;4.23;;
14096;SDS011;7125;48.106;11.544;2022-08-24T03:47:13;5.40;;;4.63;;
14096;SDS011;7125;48.106;11.544;2022-08-24T03:49:41;4.20;;;3.60;;
14096;SDS011;7125;48.106;11.544;2022-08-24T03:52:08;4.17;;;3.87;;
14096;SDS011;7125;48.106;11.544;2022-08-24T03:54:37;5.63;;;4.13;;
14096;SDS011;7125;48.106;11.544;2022-08-24T03:57:04;7.97;;;4.50;;
14096;SDS011;7125;48.106;11.544;2022-08-24T03:59:30;4.67;;;3.93;;
14096;SDS011;7125;48.106;11.544;2022-08-24T04:01:57;4.00;;;3.70;;
14096;SDS011;7125;48.106;11.544;2022-08-24T04:04:25;5.27;;;4.77;;
14096;SDS011;7125;48.106;11.544;2022-08-24T04:06:55;7.00;;;4.07;;
14096;SDS011;7125;48.106;11.544;2022-08-24T04:09:23;4.00;;;3.70;;
14096;SDS011;7125;48.106;11.544;2022-08-24T04:11:52;4.00;;;3.70;;
14096;SDS011;7125;48.106;11.544;2022-08-24T04:14:21;4.40;;;4.00;;
14096;SDS011;7125;48.106;11.544;2022-08-24T04:16:52;3.27;;;3.07;;
14096;SDS011;7125;48.106;11.544;2022-08-24T04:19:24;3.97;;;3.67;;
14096;SDS011;7125;48.106;11.544;2022-08-24T04:21:54;6.60;;;4.53;;
14096;SDS011;7125;48.106;11.544;2022-08-24T04:24:21;3.90;;;3.60;;
14096;SDS011;7125;48.106;11.544;2022-08-24T04:26:48;4.20;;;3.90;;
14096;SDS011;7125;48.106;11.544;2022-08-24T04:29:17;4.80;;;4.40;;
14096;SDS011;7125;48.106;11.544;2022-08-24T04:31:49;4.47;;;4.07;;
14096;SDS011;7125;48.106;11.544;2022-08-24T04:34:16;4.37;;;4.07;;
14096;SDS011;7125;48.106;11.544;2022-08-24T04:36:43;4.80;;;4.37;;
14096;SDS011;7125;48.106;11.544;2022-08-24T04:39:11;6.60;;;5.20;;
14096;SDS011;7125;48.106;11.544;2022-08-24T04:41:58;6.40;;;4.50;;
14096;SDS011;7125;48.106;11.544;2022-08-24T04:44:29;4.57;;;4.17;;
14096;SDS011;7125;48.106;11.544;2022-08-24T04:46:56;4.67;;;4.30;;
14096;SDS011;7125;48.106;11.544;2022-08-24T04:49:24;8.00;;;4.40;;
14096;SDS011;7125;48.106;11.544;2022-08-24T04:51:51;6.47;;;5.00;;
14096;SDS011;7125;48.106;11.544;2022-08-24T04:54:18;5.03;;;4.53;;
14096;SDS011;7125;48.106;11.544;2022-08-24T04:56:54;4.63;;;4.30;;
14096;SDS011;7125;48.106;11.544;2022-08-24T04:59:21;6.93;;;5.07;;
14096;SDS011;7125;48.106;11.544;2022-08-24T05:01:49;5.00;;;4.67;;
14096;SDS011;7125;48.106;11.544;2022-08-24T05:04:16;4.93;;;4.50;;
14096;SDS011;7125;48.106;11.544;2022-08-24T05:06:43;4.43;;;4.13;;
14096;SDS011;7125;48.106;11.544;2022-08-24T05:09:10;6.83;;;5.53;;
14096;SDS011;7125;48.106;11.544;2022-08-24T05:11:37;4.27;;;3.97;;
14096;SDS011;7125;48.106;11.544;2022-08-24T05:14:05;6.23;;;4.80;;
14096;SDS011;7125;48.106;11.544;2022-08-24T05:16:33;4.00;;;3.70;;
14096;SDS011;7125;48.106;11.544;2022-08-24T05:19:03;4.40;;;4.10;;
14096;SDS011;7125;48.106;11.544;2022-08-24T05:21:32;5.17;;;4.77;;
14096;SDS011;7125;48.106;11.544;2022-08-24T05:23:59;4.83;;;4.17;;
14096;SDS011;7125;48.106;11.544;2022-08-24T05:26:30;5.97;;;5.47;;
14096;SDS011;7125;48.106;11.544;2022-08-24T05:28:58;5.80;;;4.13;;
14096;SDS011;7125;48.106;11.544;2022-08-24T05:31:36;4.80;;;4.50;;
14096;SDS011;7125;48.106;11.544;2022-08-24T05:34:08;4.73;;;4.17;;
14096;SDS011;7125;48.106;11.544;2022-08-24T05:36:36;4.60;;;4.20;;
14096;SDS011;7125;48.106;11.544;2022-08-24T05:39:07;4.43;;;4.03;;
14096;SDS011;7125;48.106;11.544;2022-08-24T05:41:37;3.90;;;3.60;;
14096;SDS011;7125;48.106;11.544;2022-08-24T05:44:10;5.10;;;4.60;;
14096;SDS011;7125;48.106;11.544;2022-08-24T05:46:39;4.37;;;4.00;;
14096;SDS011;7125;48.106;11.544;2022-08-24T05:49:08;5.27;;;3.70;;
14096;SDS011;7125;48.106;11.544;2022-08-24T05:51:36;4.30;;;3.90;;
14096;SDS011;7125;48.106;11.544;2022-08-24T05:54:06;4.73;;;4.33;;
14096;SDS011;7125;48.106;11.544;2022-08-24T05:56:50;5.23;;;3.60;;
14096;SDS011;7125;48.106;11.544;2022-08-24T05:59:17;5.10;;;4.70;;
14096;SDS011;7125;48.106;11.544;2022-08-24T06:01:45;5.03;;;4.50;;
14096;SDS011;7125;48.106;11.544;2022-08-24T06:04:14;4.63;;;4.23;;
14096;SDS011;7125;48.106;11.544;2022-08-24T06:06:40;4.10;;;3.80;;
14096;SDS011;7125;48.106;11.544;2022-08-24T06:09:09;4.00;;;3.70;;
14096;SDS011;7125;48.106;11.544;2022-08-24T06:11:37;4.83;;;4.40;;
14096;SDS011;7125;48.106;11.544;2022-08-24T06:14:07;7.20;;;4.30;;
14096;SDS011;7125;48.106;11.544;2022-08-24T06:16:46;4.40;;;4.03;;
14096;SDS011;7125;48.106;11.544;2022-08-24T06:19:16;3.93;;;3.57;;
14096;SDS011;7125;48.106;11.544;2022-08-24T06:21:45;8.20;;;3.60;;
14096;SDS011;7125;48.106;11.544;2022-08-24T06:24:14;4.07;;;3.67;;
14096;SDS011;7125;48.106;11.544;2022-08-24T06:26:43;4.20;;;3.70;;
14096;SDS011;7125;48.106;11.544;2022-08-24T06:29:37;3.87;;;3.57;;
14096;SDS011;7125;48.106;11.544;2022-08-24T06:32:23;4.57;;;3.33;;
14096;SDS011;7125;48.106;11.544;2022-08-24T06:34:53;9.77;;;3.77;;
14096;SDS011;7125;48.106;11.544;2022-08-24T06:37:21;3.90;;;3.57;;
14096;SDS011;7125;48.106;11.544;2022-08-24T06:39:51;3.38;;;3.10;;
14096;SDS011;7125;48.106;11.544;2022-08-24T06:42:18;4.43;;;4.03;;
14096;SDS011;7125;48.106;11.544;2022-08-24T06:44:48;3.88;;;3.58;;
14096;SDS011;7125;48.106;11.544;2022-08-24T06:47:20;3.60;;;3.30;;
14096;SDS011;7125;48.106;11.544;2022-08-24T06:49:54;6.13;;;2.90;;
14096;SDS011;7125;48.106;11.544;2022-08-24T06:52:26;9.90;;;3.75;;
14096;SDS011;7125;48.106;11.544;2022-08-24T06:55:05;3.10;;;2.80;;
14096;SDS011;7125;48.106;11.544;2022-08-24T06:57:33;6.60;;;3.33;;
14096;SDS011;7125;48.106;11.544;2022-08-24T07:00:00;3.03;;;2.70;;
14096;SDS011;7125;48.106;11.544;2022-08-24T07:02:28;4.45;;;3.67;;
14096;SDS011;7125;48.106;11.544;2022-08-24T07:04:57;3.28;;;3.00;;
14096;SDS011;7125;48.106;11.544;2022-08-24T07:07:56;6.60;;;3.05;;
14096;SDS011;7125;48.106;11.544;2022-08-24T07:10:24;4.38;;;3.63;;
14096;SDS011;7125;48.106;11.544;2022-08-24T07:12:52;3.78;;;3.35;;
14096;SDS011;7125;48.106;11.544;2022-08-24T07:15:19;3.78;;;3.08;;
14096;SDS011;7125;48.106;11.544;2022-08-24T07:17:59;2.65;;;2.47;;
14096;SDS011;7125;48.106;11.544;2022-08-24T07:20:29;2.88;;;2.67;;
14096;SDS011;7125;48.106;11.544;2022-08-24T07:23:07;5.28;;;2.97;;
14096;SDS011;7125;48.106;11.544;2022-08-24T07:25:36;3.53;;;3.20;;
14096;SDS011;7125;48.106;11.544;2022-08-24T07:28:04;7.30;;;3.55;;
14096;SDS011;7125;48.106;11.544;2022-08-24T07:30:31;3.05;;;2.75;;
14096;SDS011;7125;48.106;11.544;2022-08-24T07:32:58;3.42;;;3.05;;
14096;SDS011;7125;48.106;11.544;2022-08-24T07:35:27;3.38;;;3.08;;
14096;SDS011;7125;48.106;11.544;2022-08-24T07:37:58;5.15;;;3.45;;
14096;SDS011;7125;48.106;11.544;2022-08-24T07:40:26;2.97;;;2.65;;
14096;SDS011;7125;48.106;11.544;2022-08-24T07:42:55;2.97;;;2.78;;
14096;SDS011;7125;48.106;11.544;2022-08-24T07:45:23;4.78;;;3.13;;
14096;SDS011;7125;48.106;11.544;2022-08-24T07:47:51;2.72;;;2.53;;
14096;SDS011;7125;48.106;11.544;2022-08-24T07:50:32;3.35;;;3.05;;
14096;SDS011;7125;48.106;11.544;2022-08-24T07:53:00;3.95;;;3.38;;
14096;SDS011;7125;48.106;11.544;2022-08-24T07:55:28;4.35;;;3.00;;
14096;SDS011;7125;48.106;11.544;2022-08-24T07:57:54;3.28;;;3.00;;
14096;SDS011;7125;48.106;11.544;2022-08-24T08:00:23;4.05;;;3.40;;
14096;SDS011;7125;48.106;11.544;2022-08-24T08:02:56;3.55;;;2.63;;
14096;SDS011;7125;48.106;11.544;2022-08-24T08:05:24;3.63;;;3.28;;
14096;SDS011;7125;48.106;11.544;2022-08-24T08:07:52;4.07;;;2.55;;
14096;SDS011;7125;48.106;11.544;2022-08-24T08:10:20;3.50;;;2.95;;
14096;SDS011;7125;48.106;11.544;2022-08-24T08:12:49;3.00;;;2.70;;
14096;SDS011;7125;48.106;11.544;2022-08-24T08:15:16;3.38;;;2.63;;
14096;SDS011;7125;48.106;11.544;2022-08-24T08:17:54;2.80;;;2.33;;
14096;SDS011;7125;48.106;11.544;2022-08-24T08:20:21;3.95;;;2.60;;
14096;SDS011;7125;48.106;11.544;2022-08-24T08:22:49;2.60;;;2.50;;
14096;SDS011;7125;48.106;11.544;2022-08-24T08:25:53;2.80;;;2.60;;
14096;SDS011;7125;48.106;11.544;2022-08-24T08:28:32;2.35;;;2.25;;
14096;SDS011;7125;48.106;11.544;2022-08-24T08:30:59;2.45;;;2.25;;
14096;SDS011;7125;48.106;11.544;2022-08-24T08:33:27;5.13;;;2.60;;
14096;SDS011;7125;48.106;11.544;2022-08-24T08:36:01;5.28;;;2.45;;
14096;SDS011;7125;48.106;11.544;2022-08-24T08:38:31;2.90;;;2.70;;
14096;SDS011;7125;48.106;11.544;2022-08-24T08:41:05;2.72;;;2.30;;
14096;SDS011;7125;48.106;11.544;2022-08-24T08:44:11;4.90;;;2.67;;
14096;SDS011;7125;48.106;11.544;2022-08-24T08:46:46;2.83;;;2.63;;
14096;SDS011;7125;48.106;11.544;2022-08-24T08:49:41;2.70;;;2.20;;
14096;SDS011;7125;48.106;11.544;2022-08-24T08:53:02;3.58;;;3.25;;
14096;SDS011;7125;48.106;11.544;2022-08-24T08:55:58;4.07;;;2.78;;
14096;SDS011;7125;48.106;11.544;2022-08-24T08:58:41;3.55;;;2.72;;
14096;SDS011;7125;48.106;11.544;2022-08-24T09:01:22;3.58;;;2.90;;
14096;SDS011;7125;48.106;11.544;2022-08-24T09:04:08;4.30;;;2.63;;
14096;SDS011;7125;48.106;11.544;2022-08-24T09:07:06;2.72;;;2.35;;
14096;SDS011;7125;48.106;11.544;2022-08-24T09:12:52;2.33;;;2.20;;
14096;SDS011;7125;48.106;11.544;2022-08-24T09:18:48;3.33;;;3.00;;
14096;SDS011;7125;48.106;11.544;2022-08-24T09:21:34;2.33;;;2.13;;
14096;SDS011;7125;48.106;11.544;2022-08-24T09:24:19;5.28;;;2.30;;
14096;SDS011;7125;48.106;11.544;2022-08-24T09:27:23;3.20;;;2.90;;
14096;SDS011;7125;48.106;11.544;2022-08-24T09:30:07;2.20;;;2.00;;
14096;SDS011;7125;48.106;11.544;2022-08-24T09:32:44;2.75;;;2.20;;
14096;SDS011;7125;48.106;11.544;2022-08-24T09:35:21;3.13;;;2.13;;
14096;SDS011;7125;48.106;11.544;2022-08-24T09:37:59;2.70;;;2.50;;
14096;SDS011;7125;48.106;11.544;2022-08-24T09:40:43;4.25;;;2.35;;
14096;SDS011;7125;48.106;11.544;2022-08-24T09:43:52;3.15;;;2.40;;
14096;SDS011;7125;48.106;11.544;2022-08-24T09:55:52;2.72;;;2.53;;
14096;SDS011;7125;48.106;11.544;2022-08-24T09:58:30;2.17;;;1.98;;
14096;SDS011;7125;48.106;11.544;2022-08-24T10:01:11;3.83;;;2.75;;
14096;SDS011;7125;48.106;11.544;2022-08-24T10:03:53;2.70;;;2.50;;
14096;SDS011;7125;48.106;11.544;2022-08-24T10:06:32;4.82;;;2.65;;
14096;SDS011;7125;48.106;11.544;2022-08-24T10:09:17;4.35;;;3.13;;
14096;SDS011;7125;48.106;11.544;2022-08-24T10:12:11;3.10;;;2.40;;
14096;SDS011;7125;48.106;11.544;2022-08-24T10:14:49;2.42;;;2.25;;
14096;SDS011;7125;48.106;11.544;2022-08-24T10:17:21;2.92;;;2.38;;
14096;SDS011;7125;48.106;11.544;2022-08-24T10:20:03;3.53;;;2.78;;
14096;SDS011;7125;48.106;11.544;2022-08-24T10:25:41;9.88;;;3.45;;
14096;SDS011;7125;48.106;11.544;2022-08-24T10:28:24;2.83;;;2.63;;
14096;SDS011;7125;48.106;11.544;2022-08-24T10:31:03;3.35;;;3.00;;
14096;SDS011;7125;48.106;11.544;2022-08-24T10:33:34;3.60;;;2.72;;
14096;SDS011;7125;48.106;11.544;2022-08-24T10:36:21;5.28;;;2.80;;
14096;SDS011;7125;48.106;11.544;2022-08-24T10:39:11;2.42;;;2.25;;
14096;SDS011;7125;48.106;11.544;2022-08-24T10:42:25;2.80;;;2.60;;
14096;SDS011;7125;48.106;11.544;2022-08-24T10:45:34;2.72;;;2.47;;
14096;SDS011;7125;48.106;11.544;2022-08-24T10:48:45;4.00;;;2.42;;
14096;SDS011;7125;48.106;11.544;2022-08-24T10:51:33;2.47;;;2.28;;
14096;SDS011;7125;48.106;11.544;2022-08-24T10:54:09;3.10;;;2.90;;
14096;SDS011;7125;48.106;11.544;2022-08-24T10:56:38;4.45;;;2.92;;
14096;SDS011;7125;48.106;11.544;2022-08-24T10:59:21;3.25;;;3.05;;
14096;SDS011;7125;48.106;11.544;2022-08-24T11:02:03;4.18;;;2.70;;
14096;SDS011;7125;48.106;11.544;2022-08-24T11:04:32;3.25;;;2.30;;
14096;SDS011;7125;48.106;11.544;2022-08-24T11:07:06;2.90;;;2.50;;
14096;SDS011;7125;48.106;11.544;2022-08-24T11:09:42;3.95;;;2.90;;
14096;SDS011;7125;48.106;11.544;2022-08-24T11:12:16;3.53;;;3.05;;
14096;SDS011;7125;48.106;11.544;2022-08-24T11:14:49;3.92;;;2.72;;
14096;SDS011;7125;48.106;11.544;2022-08-24T11:17:17;2.70;;;2.50;;
14096;SDS011;7125;48.106;11.544;2022-08-24T11:19:45;3.20;;;2.88;;
14096;SDS011;7125;48.106;11.544;2022-08-24T11:22:32;3.25;;;2.28;;
14096;SDS011;7125;48.106;11.544;2022-08-24T11:25:04;2.50;;;2.25;;
14096;SDS011;7125;48.106;11.544;2022-08-24T11:27:36;4.57;;;2.80;;
14096;SDS011;7125;48.106;11.544;2022-08-24T11:30:09;3.35;;;2.65;;
14096;SDS011;7125;48.106;11.544;2022-08-24T11:32:41;3.20;;;3.00;;
14096;SDS011;7125;48.106;11.544;2022-08-24T11:35:18;2.97;;;2.78;;
14096;SDS011;7125;48.106;11.544;2022-08-24T11:37:47;2.92;;;2.70;;
14096;SDS011;7125;48.106;11.544;2022-08-24T11:40:16;5.03;;;2.80;;
14096;SDS011;7125;48.106;11.544;2022-08-24T11:42:50;3.03;;;2.72;;
14096;SDS011;7125;48.106;11.544;2022-08-24T11:45:32;2.80;;;2.60;;
14096;SDS011;7125;48.106;11.544;2022-08-24T11:48:04;3.65;;;2.92;;
14096;SDS011;7125;48.106;11.544;2022-08-24T11:50:42;3.13;;;2.83;;
14096;SDS011;7125;48.106;11.544;2022-08-24T11:53:19;3.08;;;2.80;;
14096;SDS011;7125;48.106;11.544;2022-08-24T11:55:54;2.70;;;2.50;;
14096;SDS011;7125;48.106;11.544;2022-08-24T11:58:37;2.72;;;2.53;;
14096;SDS011;7125;48.106;11.544;2022-08-24T12:01:15;3.10;;;2.90;;
14096;SDS011;7125;48.106;11.544;2022-08-24T12:06:45;2.97;;;2.72;;
14096;SDS011;7125;48.106;11.544;2022-08-24T12:09:23;4.00;;;2.97;;
14096;SDS011;7125;48.106;11.544;2022-08-24T12:12:05;3.50;;;3.20;;
14096;SDS011;7125;48.106;11.544;2022-08-24T12:14:39;2.42;;;2.22;;
14096;SDS011;7125;48.106;11.544;2022-08-24T12:17:15;5.90;;;3.47;;
14096;SDS011;7125;48.106;11.544;2022-08-24T12:19:52;6.90;;;3.13;;
14096;SDS011;7125;48.106;11.544;2022-08-24T12:22:24;2.90;;;2.70;;
14096;SDS011;7125;48.106;11.544;2022-08-24T12:24:54;5.75;;;2.78;;
14096;SDS011;7125;48.106;11.544;2022-08-24T12:27:24;4.05;;;2.95;;
14096;SDS011;7125;48.106;11.544;2022-08-24T12:29:56;3.47;;;3.17;;
14096;SDS011;7125;48.106;11.544;2022-08-24T12:32:29;3.13;;;2.83;;
14096;SDS011;7125;48.106;11.544;2022-08-24T12:35:04;3.70;;;3.00;;
14096;SDS011;7125;48.106;11.544;2022-08-24T12:37:36;2.72;;;2.50;;
14096;SDS011;7125;48.106;11.544;2022-08-24T12:40:10;2.42;;;2.22;;
14096;SDS011;7125;48.106;11.544;2022-08-24T12:42:47;3.63;;;2.85;;
14096;SDS011;7125;48.106;11.544;2022-08-24T12:45:19;3.30;;;2.67;;
14096;SDS011;7125;48.106;11.544;2022-08-24T12:47:51;2.78;;;2.58;;
14096;SDS011;7125;48.106;11.544;2022-08-24T12:50:24;2.47;;;2.20;;
14096;SDS011;7125;48.106;11.544;2022-08-24T12:56:18;2.38;;;2.22;;
14096;SDS011;7125;48.106;11.544;2022-08-24T12:58:58;3.25;;;2.63;;
14096;SDS011;7125;48.106;11.544;2022-08-24T13:01:29;2.55;;;2.35;;
14096;SDS011;7125;48.106;11.544;2022-08-24T13:04:12;6.55;;;2.65;;
14096;SDS011;7125;48.106;11.544;2022-08-24T13:06:45;2.53;;;2.28;;
14096;SDS011;7125;48.106;11.544;2022-08-24T13:09:25;3.30;;;2.38;;
14096;SDS011;7125;48.106;11.544;2022-08-24T13:11:56;2.38;;;2.17;;
14096;SDS011;7125;48.106;11.544;2022-08-24T13:14:25;2.70;;;2.08;;
14096;SDS011;7125;48.106;11.544;2022-08-24T13:17:07;3.38;;;2.35;;
14096;SDS011;7125;48.106;11.544;2022-08-24T13:19:40;4.20;;;2.40;;
14096;SDS011;7125;48.106;11.544;2022-08-24T13:28:31;2.70;;;2.47;;
14096;SDS011;7125;48.106;11.544;2022-08-24T13:31:17;3.03;;;2.00;;
14096;SDS011;7125;48.106;11.544;2022-08-24T13:33:51;2.90;;;2.17;;
14096;SDS011;7125;48.106;11.544;2022-08-24T13:36:37;2.40;;;2.20;;
14096;SDS011;7125;48.106;11.544;2022-08-24T13:39:33;2.33;;;2.17;;
14096;SDS011;7125;48.106;11.544;2022-08-24T13:44:43;2.28;;;2.03;;
14096;SDS011;7125;48.106;11.544;2022-08-24T13:47:29;2.58;;;2.10;;
14096;SDS011;7125;48.106;11.544;2022-08-24T13:50:10;2.00;;;1.90;;
14096;SDS011;7125;48.106;11.544;2022-08-24T13:52:54;2.63;;;2.42;;
14096;SDS011;7125;48.106;11.544;2022-08-24T13:55:38;2.15;;;1.98;;
14096;SDS011;7125;48.106;11.544;2022-08-24T13:58:15;6.45;;;2.45;;
14096;SDS011;7125;48.106;11.544;2022-08-24T14:00:50;2.22;;;2.03;;
14096;SDS011;7125;48.106;11.544;2022-08-24T14:03:27;4.68;;;3.20;;
14096;SDS011;7125;48.106;11.544;2022-08-24T14:06:17;2.60;;;2.40;;
14096;SDS011;7125;48.106;11.544;2022-08-24T14:09:00;4.65;;;2.25;;
14096;SDS011;7125;48.106;11.544;2022-08-24T14:14:18;3.50;;;2.60;;
14096;SDS011;7125;48.106;11.544;2022-08-24T14:19:48;4.13;;;2.22;;
14096;SDS011;7125;48.106;11.544;2022-08-24T14:22:26;2.30;;;2.10;;
14096;SDS011;7125;48.106;11.544;2022-08-24T14:27:36;2.88;;;2.50;;
14096;SDS011;7125;48.106;11.544;2022-08-24T14:38:09;2.70;;;2.42;;
14096;SDS011;7125;48.106;11.544;2022-08-24T14:40:43;3.15;;;2.22;;
14096;SDS011;7125;48.106;11.544;2022-08-24T14:46:12;3.33;;;2.35;;
14096;SDS011;7125;48.106;11.544;2022-08-24T14:48:47;2.20;;;2.10;;
14096;SDS011;7125;48.106;11.544;2022-08-24T14:53:59;2.00;;;1.80;;
14096;SDS011;7125;48.106;11.544;2022-08-24T14:59:05;2.42;;;2.22;;
14096;SDS011;7125;48.106;11.544;2022-08-24T15:01:39;3.15;;;2.03;;
14096;SDS011;7125;48.106;11.544;2022-08-24T15:09:55;2.70;;;2.50;;
14096;SDS011;7125;48.106;11.544;2022-08-24T15:14:57;1.90;;;1.80;;
14096;SDS011;7125;48.106;11.544;2022-08-24T15:17:38;2.25;;;2.00;;
14096;SDS011;7125;48.106;11.544;2022-08-24T15:20:14;2.30;;;2.20;;
14096;SDS011;7125;48.106;11.544;2022-08-24T15:28:06;2.47;;;2.28;;
14096;SDS011;7125;48.106;11.544;2022-08-24T15:30:35;2.50;;;2.05;;
14096;SDS011;7125;48.106;11.544;2022-08-24T15:33:08;2.17;;;2.08;;
14096;SDS011;7125;48.106;11.544;2022-08-24T15:35:37;2.03;;;1.92;;
14096;SDS011;7125;48.106;11.544;2022-08-24T15:38:19;2.08;;;1.98;;
14096;SDS011;7125;48.106;11.544;2022-08-24T15:40:48;2.90;;;2.08;;
14096;SDS011;7125;48.106;11.544;2022-08-24T15:43:17;2.38;;;2.17;;
14096;SDS011;7125;48.106;11.544;2022-08-24T15:45:45;2.00;;;1.80;;
14096;SDS011;7125;48.106;11.544;2022-08-24T15:48:18;3.13;;;2.28;;
14096;SDS011;7125;48.106;11.544;2022-08-24T15:50:50;4.18;;;2.30;;
14096;SDS011;7125;48.106;11.544;2022-08-24T15:53:29;1.77;;;1.67;;
14096;SDS011;7125;48.106;11.544;2022-08-24T15:55:59;2.08;;;1.98;;
14096;SDS011;7125;48.106;11.544;2022-08-24T15:58:50;1.77;;;1.67;;
14096;SDS011;7125;48.106;11.544;2022-08-24T16:01:19;6.95;;;2.28;;
14096;SDS011;7125;48.106;11.544;2022-08-24T16:04:39;3.42;;;1.95;;
14096;SDS011;7125;48.106;11.544;2022-08-24T16:07:13;3.13;;;2.47;;
14096;SDS011;7125;48.106;11.544;2022-08-24T16:09:46;4.25;;;2.28;;
14096;SDS011;7125;48.106;11.544;2022-08-24T16:12:14;1.95;;;1.85;;
14096;SDS011;7125;48.106;11.544;2022-08-24T16:14:49;2.10;;;2.00;;
14096;SDS011;7125;48.106;11.544;2022-08-24T16:17:26;2.03;;;1.90;;
14096;SDS011;7125;48.106;11.544;2022-08-24T16:20:01;2.50;;;2.30;;
14096;SDS011;7125;48.106;11.544;2022-08-24T16:22:32;6.25;;;2.22;;
14096;SDS011;7125;48.106;11.544;2022-08-24T16:25:06;3.15;;;1.92;;
14096;SDS011;7125;48.106;11.544;2022-08-24T16:27:56;11.90;;;2.47;;
14096;SDS011;7125;48.106;11.544;2022-08-24T16:30:38;3.40;;;1.80;;
14096;SDS011;7125;48.106;11.544;2022-08-24T16:33:32;2.20;;;2.00;;
14096;SDS011;7125;48.106;11.544;2022-08-24T16:36:07;1.88;;;1.77;;
14096;SDS011;7125;48.106;11.544;2022-08-24T16:38:36;2.42;;;2.22;;